sensor_id;sensor_type;location;lat;lon;timestamp;pressure;altitude;pressure_sealevel;temperature;humidity
48926;BME280;39838;59.938;30.642;2024-02-15T00:02:02;101770.50;;;-7.54;77.94
48926;BME280;39838;59.938;30.642;2024-02-15T00:04:29;101769.94;;;-7.52;77.43
48926;BME280;39838;59.938;30.642;2024-02-15T00:06:57;101766.66;;;-7.51;77.77
48926;BME280;39838;59.938;30.642;2024-02-15T00:09:25;101765.91;;;-7.50;77.28
48926;BME280;39838;59.938;30.642;2024-02-15T00:11:52;101770.19;;;-7.49;77.45
48926;BME280;39838;59.938;30.642;2024-02-15T00:14:20;101770.66;;;-7.53;77.66
48926;BME280;39838;59.938;30.642;2024-02-15T00:16:47;101766.97;;;-7.56;77.65
48926;BME280;39838;59.938;30.642;2024-02-15T00:19:16;101766.53;;;-7.61;78.33
48926;BME280;39838;59.938;30.642;2024-02-15T00:21:44;101760.41;;;-7.54;78.04
48926;BME280;39838;59.938;30.642;2024-02-15T00:24:11;101732.22;;;-7.59;78.08
48926;BME280;39838;59.938;30.642;2024-02-15T00:26:39;101759.44;;;-7.37;77.62
48926;BME280;39838;59.938;30.642;2024-02-15T00:29:07;101753.78;;;-7.35;77.54
48926;BME280;39838;59.938;30.642;2024-02-15T00:31:34;101755.56;;;-7.34;77.34
48926;BME280;39838;59.938;30.642;2024-02-15T00:34:04;101754.78;;;-7.33;77.68
48926;BME280;39838;59.938;30.642;2024-02-15T00:36:32;101756.75;;;-7.39;77.31
48926;BME280;39838;59.938;30.642;2024-02-15T00:39:00;101756.06;;;-7.47;77.67
48926;BME280;39838;59.938;30.642;2024-02-15T00:41:28;101757.44;;;-7.50;78.14
48926;BME280;39838;59.938;30.642;2024-02-15T00:43:55;101756.25;;;-7.54;77.93
48926;BME280;39838;59.938;30.642;2024-02-15T00:46:22;101738.50;;;-7.64;77.96
48926;BME280;39838;59.938;30.642;2024-02-15T00:48:49;101758.97;;;-7.61;78.35
48926;BME280;39838;59.938;30.642;2024-02-15T00:51:16;101751.13;;;-7.64;78.16
48926;BME280;39838;59.938;30.642;2024-02-15T00:53:45;101758.97;;;-7.61;78.51
48926;BME280;39838;59.938;30.642;2024-02-15T00:56:12;101756.56;;;-7.59;78.91
48926;BME280;39838;59.938;30.642;2024-02-15T00:58:39;101753.03;;;-7.61;78.85
48926;BME280;39838;59.938;30.642;2024-02-15T01:01:06;101748.88;;;-7.61;78.10
48926;BME280;39838;59.938;30.642;2024-02-15T01:03:34;101757.44;;;-7.50;78.27
48926;BME280;39838;59.938;30.642;2024-02-15T01:06:02;101756.03;;;-7.38;78.41
48926;BME280;39838;59.938;30.642;2024-02-15T01:08:31;101748.47;;;-7.38;77.83
48926;BME280;39838;59.938;30.642;2024-02-15T01:10:59;101748.59;;;-7.36;78.14
48926;BME280;39838;59.938;30.642;2024-02-15T01:13:27;101761.44;;;-7.25;77.61
48926;BME280;39838;59.938;30.642;2024-02-15T01:15:54;101757.81;;;-7.18;77.42
48926;BME280;39838;59.938;30.642;2024-02-15T01:18:21;101754.56;;;-7.17;77.28
48926;BME280;39838;59.938;30.642;2024-02-15T01:20:49;101753.13;;;-7.05;77.34
48926;BME280;39838;59.938;30.642;2024-02-15T01:23:18;101750.59;;;-7.05;76.87
48926;BME280;39838;59.938;30.642;2024-02-15T01:25:45;101752.44;;;-6.94;77.14
48926;BME280;39838;59.938;30.642;2024-02-15T01:28:14;101754.66;;;-6.88;76.78
48926;BME280;39838;59.938;30.642;2024-02-15T01:30:41;101754.09;;;-6.94;76.28
48926;BME280;39838;59.938;30.642;2024-02-15T01:33:09;101761.63;;;-7.04;76.26
48926;BME280;39838;59.938;30.642;2024-02-15T01:35:37;101756.22;;;-7.18;76.28
48926;BME280;39838;59.938;30.642;2024-02-15T01:38:04;101758.63;;;-7.28;76.41
48926;BME280;39838;59.938;30.642;2024-02-15T01:40:32;101756.31;;;-7.35;76.95
48926;BME280;39838;59.938;30.642;2024-02-15T01:43:00;101762.44;;;-7.42;77.22
48926;BME280;39838;59.938;30.642;2024-02-15T01:45:30;101761.59;;;-7.51;77.77
48926;BME280;39838;59.938;30.642;2024-02-15T01:47:57;101757.75;;;-7.56;77.82
48926;BME280;39838;59.938;30.642;2024-02-15T01:50:25;101760.28;;;-7.56;77.70
48926;BME280;39838;59.938;30.642;2024-02-15T01:52:55;101750.94;;;-7.57;77.68
48926;BME280;39838;59.938;30.642;2024-02-15T01:55:24;101757.44;;;-7.50;78.11
48926;BME280;39838;59.938;30.642;2024-02-15T01:57:52;101754.72;;;-7.43;77.45
48926;BME280;39838;59.938;30.642;2024-02-15T02:00:20;101752.66;;;-7.47;77.72
48926;BME280;39838;59.938;30.642;2024-02-15T02:02:57;101750.63;;;-7.51;77.66
48926;BME280;39838;59.938;30.642;2024-02-15T02:05:28;101760.75;;;-7.60;78.01
48926;BME280;39838;59.938;30.642;2024-02-15T02:07:57;101753.66;;;-7.64;77.80
48926;BME280;39838;59.938;30.642;2024-02-15T02:10:25;101757.19;;;-7.62;78.08
48926;BME280;39838;59.938;30.642;2024-02-15T02:12:53;101753.03;;;-7.61;78.08
48926;BME280;39838;59.938;30.642;2024-02-15T02:15:21;101751.72;;;-7.66;78.71
48926;BME280;39838;59.938;30.642;2024-02-15T02:17:49;101756.75;;;-7.66;78.57
48926;BME280;39838;59.938;30.642;2024-02-15T02:20:18;101751.44;;;-7.70;78.59
48926;BME280;39838;59.938;30.642;2024-02-15T02:22:48;101752.78;;;-7.73;78.65
48926;BME280;39838;59.938;30.642;2024-02-15T02:25:19;101752.94;;;-7.72;78.89
48926;BME280;39838;59.938;30.642;2024-02-15T02:27:47;101746.16;;;-7.81;79.48
48926;BME280;39838;59.938;30.642;2024-02-15T02:30:16;101757.81;;;-7.73;78.88
48926;BME280;39838;59.938;30.642;2024-02-15T02:32:44;101762.16;;;-7.72;79.49
48926;BME280;39838;59.938;30.642;2024-02-15T02:35:12;101764.25;;;-7.77;78.98
48926;BME280;39838;59.938;30.642;2024-02-15T02:37:42;101761.69;;;-7.68;79.65
48926;BME280;39838;59.938;30.642;2024-02-15T02:40:10;101762.69;;;-7.66;79.12
48926;BME280;39838;59.938;30.642;2024-02-15T02:42:48;101766.59;;;-7.70;79.14
48926;BME280;39838;59.938;30.642;2024-02-15T02:45:16;101761.41;;;-7.71;79.09
48926;BME280;39838;59.938;30.642;2024-02-15T02:47:45;101758.88;;;-7.71;79.08
48926;BME280;39838;59.938;30.642;2024-02-15T02:50:13;101754.72;;;-7.71;79.63
48926;BME280;39838;59.938;30.642;2024-02-15T02:52:40;101755.16;;;-7.75;79.77
48926;BME280;39838;59.938;30.642;2024-02-15T02:55:08;101759.63;;;-7.72;79.83
48926;BME280;39838;59.938;30.642;2024-02-15T02:57:36;101761.34;;;-7.62;79.46
48926;BME280;39838;59.938;30.642;2024-02-15T03:00:07;101763.13;;;-7.61;79.69
48926;BME280;39838;59.938;30.642;2024-02-15T03:02:37;101762.84;;;-7.64;79.34
48926;BME280;39838;59.938;30.642;2024-02-15T03:05:05;101762.84;;;-7.64;79.55
48926;BME280;39838;59.938;30.642;2024-02-15T03:07:35;101770.25;;;-7.66;79.65
48926;BME280;39838;59.938;30.642;2024-02-15T03:10:04;101762.28;;;-7.71;79.37
48926;BME280;39838;59.938;30.642;2024-02-15T03:12:34;101764.69;;;-7.72;79.76
48926;BME280;39838;59.938;30.642;2024-02-15T03:15:02;101768.22;;;-7.70;79.63
48926;BME280;39838;59.938;30.642;2024-02-15T03:17:31;101766.59;;;-7.70;79.41
48926;BME280;39838;59.938;30.642;2024-02-15T03:19:58;101765.56;;;-7.72;79.73
48926;BME280;39838;59.938;30.642;2024-02-15T03:22:28;101764.69;;;-7.72;79.79
48926;BME280;39838;59.938;30.642;2024-02-15T03:24:55;101764.19;;;-7.68;79.70
48926;BME280;39838;59.938;30.642;2024-02-15T03:27:23;101766.09;;;-7.65;79.61
48926;BME280;39838;59.938;30.642;2024-02-15T03:29:50;101770.13;;;-7.67;79.77
48926;BME280;39838;59.938;30.642;2024-02-15T03:32:18;101765.09;;;-7.67;79.76
48926;BME280;39838;59.938;30.642;2024-02-15T03:34:47;101767.28;;;-7.62;79.33
48926;BME280;39838;59.938;30.642;2024-02-15T03:37:14;101761.34;;;-7.62;79.69
48926;BME280;39838;59.938;30.642;2024-02-15T03:39:41;101767.66;;;-7.49;79.33
48926;BME280;39838;59.938;30.642;2024-02-15T03:42:08;101766.41;;;-7.35;79.06
48926;BME280;39838;59.938;30.642;2024-02-15T03:44:35;101768.47;;;-7.31;78.93
48926;BME280;39838;59.938;30.642;2024-02-15T03:47:04;101753.84;;;-7.44;78.67
48926;BME280;39838;59.938;30.642;2024-02-15T03:49:32;101770.00;;;-7.42;78.52
48926;BME280;39838;59.938;30.642;2024-02-15T03:52:00;101775.25;;;-7.49;78.75
48926;BME280;39838;59.938;30.642;2024-02-15T03:54:27;101778.22;;;-7.53;78.51
48926;BME280;39838;59.938;30.642;2024-02-15T03:56:55;101780.72;;;-7.44;79.17
48926;BME280;39838;59.938;30.642;2024-02-15T03:59:23;101779.53;;;-7.48;78.67
48926;BME280;39838;59.938;30.642;2024-02-15T04:01:53;101785.06;;;-7.52;78.61
48926;BME280;39838;59.938;30.642;2024-02-15T04:04:20;101778.72;;;-7.57;78.96
48926;BME280;39838;59.938;30.642;2024-02-15T04:06:47;101783.19;;;-7.63;79.11
48926;BME280;39838;59.938;30.642;2024-02-15T04:09:16;101758.56;;;-7.74;78.94
48926;BME280;39838;59.938;30.642;2024-02-15T04:11:44;101782.69;;;-7.50;78.90
48926;BME280;39838;59.938;30.642;2024-02-15T04:14:13;101783.81;;;-7.38;78.59
48926;BME280;39838;59.938;30.642;2024-02-15T04:16:40;101776.94;;;-7.30;78.44
48926;BME280;39838;59.938;30.642;2024-02-15T04:19:07;101772.22;;;-7.36;78.04
48926;BME280;39838;59.938;30.642;2024-02-15T04:21:37;101779.84;;;-7.45;77.93
48926;BME280;39838;59.938;30.642;2024-02-15T04:24:06;101780.16;;;-7.50;78.26
48926;BME280;39838;59.938;30.642;2024-02-15T04:26:35;101778.84;;;-7.55;78.21
48926;BME280;39838;59.938;30.642;2024-02-15T04:29:03;101787.63;;;-7.60;78.57
48926;BME280;39838;59.938;30.642;2024-02-15T04:31:30;101777.53;;;-7.60;78.30
48926;BME280;39838;59.938;30.642;2024-02-15T04:34:02;101783.19;;;-7.63;78.72
48926;BME280;39838;59.938;30.642;2024-02-15T04:36:30;101776.69;;;-7.70;78.79
48926;BME280;39838;59.938;30.642;2024-02-15T04:39:00;101788.41;;;-7.70;78.85
48926;BME280;39838;59.938;30.642;2024-02-15T04:41:28;101786.28;;;-7.65;78.80
48926;BME280;39838;59.938;30.642;2024-02-15T04:43:57;101787.78;;;-7.67;78.62
48926;BME280;39838;59.938;30.642;2024-02-15T04:46:24;101779.16;;;-7.61;78.90
48926;BME280;39838;59.938;30.642;2024-02-15T04:48:51;101784.22;;;-7.61;78.82
48926;BME280;39838;59.938;30.642;2024-02-15T04:51:19;101781.25;;;-7.65;78.63
48926;BME280;39838;59.938;30.642;2024-02-15T04:53:47;101790.00;;;-7.62;79.01
48926;BME280;39838;59.938;30.642;2024-02-15T04:56:14;101787.63;;;-7.60;78.50
48926;BME280;39838;59.938;30.642;2024-02-15T04:58:42;101779.03;;;-7.62;78.68
48926;BME280;39838;59.938;30.642;2024-02-15T05:01:15;101793.16;;;-7.64;78.67
48926;BME280;39838;59.938;30.642;2024-02-15T05:03:43;101790.00;;;-7.62;78.50
48926;BME280;39838;59.938;30.642;2024-02-15T05:06:11;101789.88;;;-7.63;78.84
48926;BME280;39838;59.938;30.642;2024-02-15T05:08:38;101787.22;;;-7.65;79.08
48926;BME280;39838;59.938;30.642;2024-02-15T05:11:09;101794.13;;;-7.54;79.04
48926;BME280;39838;59.938;30.642;2024-02-15T05:13:41;101785.47;;;-7.47;78.61
48926;BME280;39838;59.938;30.642;2024-02-15T05:16:08;101786.84;;;-7.51;78.43
48926;BME280;39838;59.938;30.642;2024-02-15T05:18:36;101785.22;;;-7.59;78.46
48926;BME280;39838;59.938;30.642;2024-02-15T05:21:05;101795.50;;;-7.66;78.20
48926;BME280;39838;59.938;30.642;2024-02-15T05:23:35;101787.22;;;-7.65;78.81
48926;BME280;39838;59.938;30.642;2024-02-15T05:26:02;101796.06;;;-7.60;78.61
48926;BME280;39838;59.938;30.642;2024-02-15T05:28:30;101795.00;;;-7.53;78.95
48926;BME280;39838;59.938;30.642;2024-02-15T05:31:11;101799.03;;;-7.55;78.74
48926;BME280;39838;59.938;30.642;2024-02-15T05:33:41;101800.06;;;-7.53;78.53
48926;BME280;39838;59.938;30.642;2024-02-15T05:36:10;101802.00;;;-7.51;78.46
48926;BME280;39838;59.938;30.642;2024-02-15T05:38:37;101801.69;;;-7.54;78.66
48926;BME280;39838;59.938;30.642;2024-02-15T05:41:04;101799.03;;;-7.55;78.44
48926;BME280;39838;59.938;30.642;2024-02-15T05:43:33;101808.25;;;-7.56;78.30
48926;BME280;39838;59.938;30.642;2024-02-15T05:46:02;101805.22;;;-7.43;78.67
48926;BME280;39838;59.938;30.642;2024-02-15T05:48:29;101817.97;;;-7.42;78.18
48926;BME280;39838;59.938;30.642;2024-02-15T05:50:58;101818.25;;;-7.38;78.30
48926;BME280;39838;59.938;30.642;2024-02-15T05:53:26;101820.94;;;-7.37;78.10
48926;BME280;39838;59.938;30.642;2024-02-15T05:55:54;101819.00;;;-7.39;78.26
48926;BME280;39838;59.938;30.642;2024-02-15T05:58:23;101827.28;;;-7.32;78.34
48926;BME280;39838;59.938;30.642;2024-02-15T06:00:50;101834.09;;;-7.22;77.98
48926;BME280;39838;59.938;30.642;2024-02-15T06:03:18;101825.19;;;-7.27;78.04
48926;BME280;39838;59.938;30.642;2024-02-15T06:05:47;101820.75;;;-7.30;77.87
48926;BME280;39838;59.938;30.642;2024-02-15T06:08:16;101820.44;;;-7.33;77.84
48926;BME280;39838;59.938;30.642;2024-02-15T06:10:44;101814.50;;;-7.33;77.87
48926;BME280;39838;59.938;30.642;2024-02-15T06:13:12;101813.19;;;-7.38;78.15
48926;BME280;39838;59.938;30.642;2024-02-15T06:15:40;101819.31;;;-7.36;78.13
48926;BME280;39838;59.938;30.642;2024-02-15T06:18:07;101819.44;;;-7.35;78.36
48926;BME280;39838;59.938;30.642;2024-02-15T06:20:37;101820.44;;;-7.33;78.14
48926;BME280;39838;59.938;30.642;2024-02-15T06:23:04;101829.81;;;-7.32;78.31
48926;BME280;39838;59.938;30.642;2024-02-15T06:25:34;101821.31;;;-7.24;78.74
48926;BME280;39838;59.938;30.642;2024-02-15T06:28:02;101828.78;;;-7.06;78.28
48926;BME280;39838;59.938;30.642;2024-02-15T06:30:39;101824.41;;;-6.99;77.81
48926;BME280;39838;59.938;30.642;2024-02-15T06:33:38;101823.00;;;-6.87;77.61
48926;BME280;39838;59.938;30.642;2024-02-15T06:36:22;101828.28;;;-6.75;77.22
48926;BME280;39838;59.938;30.642;2024-02-15T06:39:07;101834.16;;;-6.66;76.58
48926;BME280;39838;59.938;30.642;2024-02-15T06:41:53;101840.44;;;-6.71;76.49
48926;BME280;39838;59.938;30.642;2024-02-15T06:44:20;101827.53;;;-6.74;76.36
48926;BME280;39838;59.938;30.642;2024-02-15T06:46:49;101833.66;;;-6.80;76.37
48926;BME280;39838;59.938;30.642;2024-02-15T06:49:16;101831.16;;;-6.80;76.34
48926;BME280;39838;59.938;30.642;2024-02-15T06:51:44;101829.38;;;-6.81;76.68
48926;BME280;39838;59.938;30.642;2024-02-15T06:54:14;101819.88;;;-6.84;76.81
48926;BME280;39838;59.938;30.642;2024-02-15T06:56:42;101825.66;;;-6.85;76.59
48926;BME280;39838;59.938;30.642;2024-02-15T06:59:12;101828.56;;;-6.91;76.48
48926;BME280;39838;59.938;30.642;2024-02-15T07:01:42;101832.28;;;-6.96;76.78
48926;BME280;39838;59.938;30.642;2024-02-15T07:04:09;101840.47;;;-6.98;77.14
48926;BME280;39838;59.938;30.642;2024-02-15T07:06:37;101836.06;;;-6.82;77.30
48926;BME280;39838;59.938;30.642;2024-02-15T07:09:05;101831.84;;;-6.73;76.91
48926;BME280;39838;59.938;30.642;2024-02-15T07:11:32;101843.38;;;-6.66;77.21
48926;BME280;39838;59.938;30.642;2024-02-15T07:14:00;101835.22;;;-6.64;77.05
48926;BME280;39838;59.938;30.642;2024-02-15T07:16:28;101840.31;;;-6.53;77.18
48926;BME280;39838;59.938;30.642;2024-02-15T07:18:56;101842.56;;;-6.38;76.82
48926;BME280;39838;59.938;30.642;2024-02-15T07:21:23;101845.50;;;-6.33;76.44
48926;BME280;39838;59.938;30.642;2024-02-15T07:23:52;101830.44;;;-6.32;76.29
48926;BME280;39838;59.938;30.642;2024-02-15T07:26:20;101846.91;;;-6.08;76.12
48926;BME280;39838;59.938;30.642;2024-02-15T07:28:50;101846.06;;;-5.98;76.34
48926;BME280;39838;59.938;30.642;2024-02-15T07:31:18;101843.94;;;-5.93;76.03
48926;BME280;39838;59.938;30.642;2024-02-15T07:33:48;101850.28;;;-5.78;76.11
48926;BME280;39838;59.938;30.642;2024-02-15T07:36:18;101851.84;;;-5.70;75.33
48926;BME280;39838;59.938;30.642;2024-02-15T07:38:47;101844.88;;;-5.72;74.96
48926;BME280;39838;59.938;30.642;2024-02-15T07:41:14;101853.47;;;-5.81;75.29
48926;BME280;39838;59.938;30.642;2024-02-15T07:43:43;101855.44;;;-5.87;74.97
48926;BME280;39838;59.938;30.642;2024-02-15T07:46:11;101854.69;;;-5.96;74.51
48926;BME280;39838;59.938;30.642;2024-02-15T07:48:39;101854.50;;;-6.08;75.08
48926;BME280;39838;59.938;30.642;2024-02-15T07:51:12;101857.13;;;-6.16;75.13
48926;BME280;39838;59.938;30.642;2024-02-15T07:53:40;101856.91;;;-6.28;75.43
48926;BME280;39838;59.938;30.642;2024-02-15T07:56:08;101854.72;;;-6.34;75.51
48926;BME280;39838;59.938;30.642;2024-02-15T07:58:38;101855.00;;;-6.30;75.88
48926;BME280;39838;59.938;30.642;2024-02-15T08:01:08;101854.38;;;-6.28;75.83
48926;BME280;39838;59.938;30.642;2024-02-15T08:03:35;101852.66;;;-6.19;75.59
48926;BME280;39838;59.938;30.642;2024-02-15T08:06:03;101854.63;;;-6.06;75.84
48926;BME280;39838;59.938;30.642;2024-02-15T08:08:34;101853.47;;;-5.81;75.39
48926;BME280;39838;59.938;30.642;2024-02-15T08:11:02;101854.66;;;-5.67;74.98
48926;BME280;39838;59.938;30.642;2024-02-15T08:13:30;101859.84;;;-5.65;74.82
48926;BME280;39838;59.938;30.642;2024-02-15T08:15:57;101862.50;;;-5.64;74.60
48926;BME280;39838;59.938;30.642;2024-02-15T08:18:24;101867.19;;;-5.58;74.21
48926;BME280;39838;59.938;30.642;2024-02-15T08:20:52;101862.25;;;-5.57;74.34
48926;BME280;39838;59.938;30.642;2024-02-15T08:23:19;101872.03;;;-5.51;74.21
48926;BME280;39838;59.938;30.642;2024-02-15T08:25:47;101858.75;;;-5.48;74.36
48926;BME280;39838;59.938;30.642;2024-02-15T08:28:14;101855.47;;;-5.47;74.42
48926;BME280;39838;59.938;30.642;2024-02-15T08:30:41;101863.94;;;-5.47;74.22
48926;BME280;39838;59.938;30.642;2024-02-15T08:33:08;101861.06;;;-5.41;74.23
48926;BME280;39838;59.938;30.642;2024-02-15T08:35:37;101864.09;;;-5.35;73.59
48926;BME280;39838;59.938;30.642;2024-02-15T08:38:06;101866.25;;;-5.40;73.63
48926;BME280;39838;59.938;30.642;2024-02-15T08:40:33;101850.28;;;-5.39;74.05
48926;BME280;39838;59.938;30.642;2024-02-15T08:43:02;101867.38;;;-5.36;74.09
48926;BME280;39838;59.938;30.642;2024-02-15T08:45:29;101871.97;;;-5.32;74.10
48926;BME280;39838;59.938;30.642;2024-02-15T08:47:57;101872.88;;;-5.22;74.04
48926;BME280;39838;59.938;30.642;2024-02-15T08:50:24;101869.22;;;-4.95;74.41
48926;BME280;39838;59.938;30.642;2024-02-15T08:52:51;101867.97;;;-4.69;73.52
48926;BME280;39838;59.938;30.642;2024-02-15T08:55:18;101875.84;;;-4.66;72.03
48926;BME280;39838;59.938;30.642;2024-02-15T08:57:49;101880.41;;;-4.72;72.27
48926;BME280;39838;59.938;30.642;2024-02-15T09:00:18;101874.56;;;-4.71;72.17
48926;BME280;39838;59.938;30.642;2024-02-15T09:02:46;101877.84;;;-4.82;72.36
48926;BME280;39838;59.938;30.642;2024-02-15T09:05:14;101875.19;;;-4.84;72.01
48926;BME280;39838;59.938;30.642;2024-02-15T09:07:44;101880.63;;;-4.89;71.90
48926;BME280;39838;59.938;30.642;2024-02-15T09:10:14;101885.34;;;-4.94;72.87
48926;BME280;39838;59.938;30.642;2024-02-15T09:12:43;101875.81;;;-4.97;72.32
48926;BME280;39838;59.938;30.642;2024-02-15T09:15:13;101868.72;;;-4.90;73.49
48926;BME280;39838;59.938;30.642;2024-02-15T09:17:42;101875.56;;;-4.69;72.98
48926;BME280;39838;59.938;30.642;2024-02-15T09:20:12;101878.75;;;-4.51;72.60
48926;BME280;39838;59.938;30.642;2024-02-15T09:22:41;101872.75;;;-4.31;72.28
48926;BME280;39838;59.938;30.642;2024-02-15T09:25:09;101878.22;;;-4.37;70.95
48926;BME280;39838;59.938;30.642;2024-02-15T09:27:36;101876.59;;;-4.47;71.26
48926;BME280;39838;59.938;30.642;2024-02-15T09:30:04;101882.28;;;-4.49;71.27
48926;BME280;39838;59.938;30.642;2024-02-15T09:32:35;101877.56;;;-4.34;72.30
48926;BME280;39838;59.938;30.642;2024-02-15T09:35:04;101875.53;;;-4.18;71.30
48926;BME280;39838;59.938;30.642;2024-02-15T09:37:33;101880.72;;;-4.17;71.33
48926;BME280;39838;59.938;30.642;2024-02-15T09:40:00;101880.59;;;-4.18;71.02
48926;BME280;39838;59.938;30.642;2024-02-15T09:42:32;101881.50;;;-4.18;70.54
48926;BME280;39838;59.938;30.642;2024-02-15T09:45:00;101882.38;;;-4.17;70.59
48926;BME280;39838;59.938;30.642;2024-02-15T09:47:34;101882.38;;;-4.17;71.17
48926;BME280;39838;59.938;30.642;2024-02-15T09:50:05;101884.25;;;-4.15;70.57
48926;BME280;39838;59.938;30.642;2024-02-15T09:52:33;101882.38;;;-4.17;70.42
48926;BME280;39838;59.938;30.642;2024-02-15T09:55:03;101880.50;;;-4.20;70.78
48926;BME280;39838;59.938;30.642;2024-02-15T09:57:30;101880.44;;;-4.09;70.62
48926;BME280;39838;59.938;30.642;2024-02-15T09:59:59;101870.41;;;-4.08;70.29
48926;BME280;39838;59.938;30.642;2024-02-15T10:02:26;101866.59;;;-4.03;70.03
48926;BME280;39838;59.938;30.642;2024-02-15T10:04:54;101875.09;;;-3.92;70.39
48926;BME280;39838;59.938;30.642;2024-02-15T10:07:24;101878.78;;;-3.67;70.61
48926;BME280;39838;59.938;30.642;2024-02-15T10:09:52;101874.56;;;-3.66;69.42
48926;BME280;39838;59.938;30.642;2024-02-15T10:12:19;101871.59;;;-3.72;69.64
48926;BME280;39838;59.938;30.642;2024-02-15T10:14:50;101881.47;;;-3.75;69.85
48926;BME280;39838;59.938;30.642;2024-02-15T10:17:19;101872.81;;;-3.67;69.92
48926;BME280;39838;59.938;30.642;2024-02-15T10:20:02;101864.50;;;-3.54;69.39
48926;BME280;39838;59.938;30.642;2024-02-15T10:22:32;101877.84;;;-3.57;68.96
48926;BME280;39838;59.938;30.642;2024-02-15T10:25:12;101876.78;;;-3.71;69.12
48926;BME280;39838;59.938;30.642;2024-02-15T10:27:39;101886.34;;;-3.78;68.94
48926;BME280;39838;59.938;30.642;2024-02-15T10:30:17;101886.84;;;-3.82;69.31
48926;BME280;39838;59.938;30.642;2024-02-15T10:32:44;101883.03;;;-3.77;69.55
48926;BME280;39838;59.938;30.642;2024-02-15T10:35:19;101883.53;;;-3.81;69.38
48926;BME280;39838;59.938;30.642;2024-02-15T10:37:49;101878.56;;;-3.80;69.99
48926;BME280;39838;59.938;30.642;2024-02-15T10:40:20;101880.09;;;-3.72;69.79
48926;BME280;39838;59.938;30.642;2024-02-15T10:42:51;101871.13;;;-3.57;69.82
48926;BME280;39838;59.938;30.642;2024-02-15T10:45:18;101874.06;;;-3.40;69.53
48926;BME280;39838;59.938;30.642;2024-02-15T10:47:46;101876.63;;;-3.40;68.73
48926;BME280;39838;59.938;30.642;2024-02-15T10:50:13;101877.28;;;-3.43;68.72
48926;BME280;39838;59.938;30.642;2024-02-15T10:52:47;101879.84;;;-3.53;68.63
48926;BME280;39838;59.938;30.642;2024-02-15T10:55:21;101882.09;;;-3.68;68.79
48926;BME280;39838;59.938;30.642;2024-02-15T10:57:51;101857.38;;;-3.80;69.40
48926;BME280;39838;59.938;30.642;2024-02-15T11:00:21;101847.28;;;-3.69;69.38
48926;BME280;39838;59.938;30.642;2024-02-15T11:03:01;101864.19;;;-3.25;69.36
48926;BME280;39838;59.938;30.642;2024-02-15T11:05:32;101864.13;;;-2.93;69.27
48926;BME280;39838;59.938;30.642;2024-02-15T11:08:03;101862.66;;;-2.68;68.55
48926;BME280;39838;59.938;30.642;2024-02-15T11:10:34;101867.06;;;-2.77;67.50
48926;BME280;39838;59.938;30.642;2024-02-15T11:13:01;101866.56;;;-2.95;67.67
48926;BME280;39838;59.938;30.642;2024-02-15T11:15:40;101869.75;;;-2.97;68.24
48926;BME280;39838;59.938;30.642;2024-02-15T11:18:11;101881.66;;;-2.75;68.49
48926;BME280;39838;59.938;30.642;2024-02-15T11:20:48;101872.56;;;-2.83;67.40
48926;BME280;39838;59.938;30.642;2024-02-15T11:23:26;101867.31;;;-2.96;68.13
48926;BME280;39838;59.938;30.642;2024-02-15T11:25:55;101877.56;;;-2.84;67.65
48926;BME280;39838;59.938;30.642;2024-02-15T11:28:43;101868.31;;;-2.94;67.77
48926;BME280;39838;59.938;30.642;2024-02-15T11:31:53;101875.16;;;-3.05;67.67
48926;BME280;39838;59.938;30.642;2024-02-15T11:34:42;101882.22;;;-3.00;68.17
48926;BME280;39838;59.938;30.642;2024-02-15T11:40:11;101887.13;;;-2.92;68.32
48926;BME280;39838;59.938;30.642;2024-02-15T11:42:40;101884.31;;;-2.73;67.83
48926;BME280;39838;59.938;30.642;2024-02-15T11:45:07;101887.00;;;-2.60;67.73
48926;BME280;39838;59.938;30.642;2024-02-15T11:47:37;101863.75;;;-2.64;67.02
48926;BME280;39838;59.938;30.642;2024-02-15T11:50:08;101885.69;;;-2.55;66.98
48926;BME280;39838;59.938;30.642;2024-02-15T11:52:38;101883.38;;;-2.52;67.00
48926;BME280;39838;59.938;30.642;2024-02-15T11:55:07;101883.59;;;-2.49;66.91
48926;BME280;39838;59.938;30.642;2024-02-15T11:57:36;101882.41;;;-2.42;66.90
48926;BME280;39838;59.938;30.642;2024-02-15T12:00:22;101887.94;;;-2.36;67.02
48926;BME280;39838;59.938;30.642;2024-02-15T12:03:07;101886.28;;;-2.35;66.34
48926;BME280;39838;59.938;30.642;2024-02-15T12:05:52;101884.47;;;-2.60;66.50
48926;BME280;39838;59.938;30.642;2024-02-15T12:08:37;101878.91;;;-2.78;66.75
48926;BME280;39838;59.938;30.642;2024-02-15T12:11:21;101893.81;;;-2.82;67.60
48926;BME280;39838;59.938;30.642;2024-02-15T12:14:06;101890.53;;;-2.69;67.44
48926;BME280;39838;59.938;30.642;2024-02-15T12:17:05;101878.47;;;-2.60;67.42
48926;BME280;39838;59.938;30.642;2024-02-15T12:19:51;101887.25;;;-2.45;67.34
48926;BME280;39838;59.938;30.642;2024-02-15T12:22:21;101879.97;;;-2.40;67.22
48926;BME280;39838;59.938;30.642;2024-02-15T12:24:59;101855.59;;;-2.60;67.04
48926;BME280;39838;59.938;30.642;2024-02-15T12:27:27;101876.84;;;-2.48;67.08
48926;BME280;39838;59.938;30.642;2024-02-15T12:29:55;101878.84;;;-2.44;66.96
48926;BME280;39838;59.938;30.642;2024-02-15T12:32:26;101877.41;;;-2.40;67.10
48926;BME280;39838;59.938;30.642;2024-02-15T12:35:08;101881.97;;;-2.36;66.91
48926;BME280;39838;59.938;30.642;2024-02-15T12:37:35;101879.25;;;-2.61;66.50
48926;BME280;39838;59.938;30.642;2024-02-15T12:40:10;101877.66;;;-2.71;67.24
48926;BME280;39838;59.938;30.642;2024-02-15T12:42:42;101877.81;;;-2.58;67.34
48926;BME280;39838;59.938;30.642;2024-02-15T12:45:15;101873.63;;;-2.45;67.33
48926;BME280;39838;59.938;30.642;2024-02-15T12:47:48;101871.44;;;-2.41;66.69
48926;BME280;39838;59.938;30.642;2024-02-15T12:50:17;101881.19;;;-2.35;66.59
48926;BME280;39838;59.938;30.642;2024-02-15T12:52:45;101888.94;;;-2.34;66.84
48926;BME280;39838;59.938;30.642;2024-02-15T12:55:15;101892.78;;;-2.39;66.43
48926;BME280;39838;59.938;30.642;2024-02-15T12:57:44;101891.72;;;-2.64;66.46